Kingman, Arizona
Current Conditions -  °F | °C
As of 10:51 PM on Thursday 30 Oct 2014 (Local Time) from KIGM Reporting Station
Clear Clear  
Wind Chill: 57°   Ceiling: Unl
Heat Index: 57°   Visibility: NA
Dew Point: 33°   Wind: 5mph
Humidity: 40%   Direction: 210°SSW
Pressure: 30.06"   Gusts: NA
Location:  35.19°N, 114.05°W
Report Text: KIGM 310551Z AUTO 21004KT CLR 14/01 A3006 RMK AO2 SLP122 T01390006 10239 20139 58003
Loading
Personal Weather Stations






























Interactive Weather Map New forecast layout! Learn more

10-Day Weather Forecast

Advertisements
Track Severe Weather on mobile